createdAt,value
2023-04-07T00:01:57.423Z,93.41
2023-04-07T00:04:25.478Z,94.25
2023-04-07T00:06:53.060Z,94.11
2023-04-07T00:09:20.525Z,93.78
2023-04-07T00:11:48.645Z,94.31
2023-04-07T00:14:17.497Z,95.01
2023-04-07T00:16:44.973Z,94.86
2023-04-07T00:19:12.456Z,94.87
2023-04-07T00:21:39.905Z,94.12
2023-04-07T00:24:07.646Z,94.72
2023-04-07T00:26:35.247Z,96.14
2023-04-07T00:29:02.795Z,95.83
2023-04-07T00:31:31.617Z,96.09
2023-04-07T00:33:59.122Z,95.60
2023-04-07T00:36:27.200Z,95.09
2023-04-07T00:38:54.657Z,94.83
2023-04-07T00:41:22.173Z,94.87
2023-04-07T00:43:51.255Z,94.88
2023-04-07T00:46:19.616Z,95.34
2023-04-07T00:48:48.468Z,95.94
2023-04-07T00:51:16.643Z,95.43
2023-04-07T00:53:44.118Z,94.33
2023-04-07T00:56:11.770Z,94.60
2023-04-07T00:58:39.437Z,94.22
2023-04-07T01:01:10.489Z,93.90
2023-04-07T01:03:44.699Z,93.82
2023-04-07T01:06:17.196Z,92.70
2023-04-07T01:08:51.341Z,93.22
2023-04-07T01:11:25.837Z,93.19
2023-04-07T01:13:54.698Z,93.04
2023-04-07T01:16:26.413Z,93.61
2023-04-07T01:18:57.064Z,94.06
2023-04-07T01:21:28.646Z,94.50
2023-04-07T01:24:07.313Z,93.45
2023-04-07T01:26:34.860Z,93.47
2023-04-07T01:29:12.190Z,93.59
2023-04-07T01:31:42.183Z,91.89
2023-04-07T01:34:11.927Z,91.84
2023-04-07T01:36:39.432Z,91.84
2023-04-07T01:39:07.555Z,92.69
2023-04-07T01:41:35.578Z,91.94
2023-04-07T01:44:03.533Z,92.70
2023-04-07T01:46:31.355Z,92.56
2023-04-07T01:49:00.449Z,93.64
2023-04-07T01:51:29.764Z,93.74
2023-04-07T01:53:57.580Z,93.92
2023-04-07T01:56:25.144Z,94.54
2023-04-07T01:58:52.642Z,95.17
2023-04-07T02:01:20.403Z,94.50
2023-04-07T02:03:50.876Z,95.31
2023-04-07T02:06:23.395Z,94.09
2023-04-07T02:08:53.353Z,94.67
2023-04-07T02:11:22.196Z,94.52
2023-04-07T02:13:52.179Z,93.41
2023-04-07T02:16:19.991Z,93.78
2023-04-07T02:18:48.304Z,93.01
2023-04-07T02:21:16.325Z,93.74
2023-04-07T02:23:45.289Z,92.06
2023-04-07T02:26:12.740Z,91.92
2023-04-07T02:28:40.272Z,91.83
2023-04-07T02:31:07.718Z,91.38
2023-04-07T02:33:35.287Z,91.16
2023-04-07T02:36:02.758Z,91.10
2023-04-07T02:38:30.234Z,91.57
2023-04-07T02:40:59.445Z,92.48
2023-04-07T02:43:26.981Z,92.71
2023-04-07T02:45:55.067Z,91.56
2023-04-07T02:48:22.594Z,90.77
2023-04-07T02:50:51.086Z,90.04
2023-04-07T02:53:18.543Z,89.60
2023-04-07T02:55:46.759Z,90.05
2023-04-07T02:58:15.588Z,89.86
2023-04-07T03:00:43.057Z,92.48
2023-04-07T03:03:10.980Z,92.77
2023-04-07T03:05:38.461Z,92.49
2023-04-07T03:08:06.271Z,91.70
2023-04-07T03:10:33.839Z,90.95
2023-04-07T03:13:01.345Z,90.19
2023-04-07T03:15:30.165Z,90.33
2023-04-07T03:17:57.657Z,90.00
2023-04-07T03:20:25.115Z,90.21
2023-04-07T03:22:52.591Z,90.52
2023-04-07T03:25:20.138Z,92.26
2023-04-07T03:27:47.644Z,92.63
2023-04-07T03:30:15.308Z,92.32
2023-04-07T03:32:44.144Z,93.12
2023-04-07T03:35:12.027Z,93.30
2023-04-07T03:37:39.589Z,93.83
2023-04-07T03:40:07.960Z,94.52
2023-04-07T03:42:35.426Z,94.63
2023-04-07T03:45:02.898Z,96.26
2023-04-07T03:47:30.372Z,96.25
2023-04-07T03:49:59.250Z,96.74
2023-04-07T03:52:26.727Z,96.31
2023-04-07T03:54:54.187Z,96.13
2023-04-07T03:57:21.749Z,94.66
2023-04-07T03:59:51.125Z,95.53
2023-04-07T04:02:18.807Z,95.28
2023-04-07T04:04:46.383Z,93.02
2023-04-07T04:07:15.284Z,92.24
2023-04-07T04:09:42.847Z,93.03
2023-04-07T04:12:10.540Z,94.07
2023-04-07T04:14:38.048Z,94.02
2023-04-07T04:17:05.810Z,94.56
2023-04-07T04:19:33.372Z,94.15
2023-04-07T04:22:00.839Z,94.86
2023-04-07T04:24:29.616Z,94.73
2023-04-07T04:26:57.674Z,95.08
2023-04-07T04:29:25.313Z,94.83
2023-04-07T04:31:52.734Z,96.01
2023-04-07T04:34:20.331Z,96.42
2023-04-07T04:36:49.073Z,96.81
2023-04-07T04:39:16.630Z,95.00
2023-04-07T04:41:46.002Z,95.01
2023-04-07T04:44:13.453Z,93.70
2023-04-07T04:46:40.993Z,91.94
2023-04-07T04:49:08.488Z,92.02
2023-04-07T04:51:35.966Z,92.95
2023-04-07T04:54:03.908Z,93.90
2023-04-07T04:56:31.979Z,95.42
2023-04-07T04:59:00.967Z,95.31
2023-04-07T05:01:28.529Z,95.56
2023-04-07T05:03:56.590Z,95.86
2023-04-07T05:06:24.341Z,95.78
2023-04-07T05:08:51.793Z,96.73
2023-04-07T05:11:19.241Z,97.38
2023-04-07T05:13:46.705Z,97.95
2023-04-07T05:16:15.554Z,97.82
2023-04-07T05:18:43.118Z,97.07
2023-04-07T05:21:10.944Z,97.59
2023-04-07T05:23:38.443Z,97.58
2023-04-07T05:26:06.437Z,97.48
2023-04-07T05:28:33.898Z,97.94
2023-04-07T05:31:02.105Z,97.56
2023-04-07T05:33:30.887Z,96.81
2023-04-07T05:36:00.216Z,95.81
2023-04-07T05:38:27.810Z,96.51
2023-04-07T05:40:55.274Z,96.24
2023-04-07T05:43:22.829Z,96.25
2023-04-07T05:45:50.529Z,96.77
2023-04-07T05:48:18.077Z,96.92
2023-04-07T05:50:47.004Z,97.63
2023-04-07T05:53:14.491Z,97.40
2023-04-07T05:55:43.304Z,97.23
2023-04-07T05:58:11.113Z,97.87
2023-04-07T06:00:38.652Z,97.54
2023-04-07T06:03:06.211Z,97.11
2023-04-07T06:05:34.698Z,97.19
2023-04-07T06:08:03.570Z,97.14
2023-04-07T06:10:31.782Z,97.33
2023-04-07T06:12:59.202Z,97.55
2023-04-07T06:15:26.668Z,96.94
2023-04-07T06:17:54.124Z,97.40
2023-04-07T06:20:22.924Z,97.11
2023-04-07T06:22:50.660Z,97.26
2023-04-07T06:25:19.645Z,97.07
2023-04-07T06:27:47.117Z,97.09
2023-04-07T06:30:15.365Z,96.56
2023-04-07T06:32:42.878Z,97.46
2023-04-07T06:35:10.556Z,97.77
2023-04-07T06:37:39.204Z,98.19
2023-04-07T06:40:08.242Z,99.03
2023-04-07T06:42:37.044Z,99.55
2023-04-07T06:45:04.764Z,99.58
2023-04-07T06:47:32.244Z,99.00
2023-04-07T06:49:59.814Z,99.18
2023-04-07T06:52:27.257Z,99.28
2023-04-07T06:54:54.993Z,98.80
2023-04-07T06:57:22.465Z,98.68
2023-04-07T06:59:51.274Z,98.37
2023-04-07T07:02:18.872Z,98.81
2023-04-07T07:04:46.481Z,98.50
2023-04-07T07:07:14.181Z,98.07
2023-04-07T07:09:41.662Z,97.96
2023-04-07T07:12:09.103Z,97.76
2023-04-07T07:14:36.554Z,98.02
2023-04-07T07:17:05.405Z,97.76
2023-04-07T07:19:32.872Z,98.21
2023-04-07T07:22:00.355Z,98.82
2023-04-07T07:24:29.142Z,98.46
2023-04-07T07:26:56.683Z,98.26
2023-04-07T07:29:24.243Z,98.07
2023-04-07T07:31:51.744Z,97.74
2023-04-07T07:34:20.954Z,97.54
2023-04-07T07:36:48.448Z,96.77
2023-04-07T07:39:15.958Z,96.27
2023-04-07T07:41:43.459Z,97.47
2023-04-07T07:44:10.998Z,97.64
2023-04-07T07:46:38.584Z,97.75
2023-04-07T07:49:06.153Z,96.97
2023-04-07T07:51:35.570Z,97.55
2023-04-07T07:54:03.063Z,97.86
2023-04-07T07:56:30.569Z,98.28
2023-04-07T07:58:58.446Z,98.39
2023-04-07T08:01:26.014Z,98.12
2023-04-07T08:03:53.746Z,97.98
2023-04-07T08:06:21.891Z,98.13
2023-04-07T08:08:51.414Z,98.32
2023-04-07T08:11:18.872Z,98.15
2023-04-07T08:13:46.514Z,98.11
2023-04-07T08:16:14.427Z,98.25
2023-04-07T08:18:42.094Z,98.60
2023-04-07T08:21:09.582Z,98.62
2023-04-07T08:23:37.083Z,98.94
2023-04-07T08:26:06.021Z,99.17
2023-04-07T08:28:33.471Z,98.63
2023-04-07T08:31:00.929Z,98.48
2023-04-07T08:33:28.397Z,98.98
2023-04-07T08:35:55.875Z,99.10
2023-04-07T08:38:23.410Z,99.03
2023-04-07T08:40:56.115Z,98.50
2023-04-07T08:43:26.454Z,98.70
2023-04-07T08:45:55.277Z,98.68
2023-04-07T08:48:26.672Z,97.99
2023-04-07T08:50:55.133Z,97.61
2023-04-07T08:53:27.960Z,97.09
2023-04-07T08:55:56.267Z,97.58
2023-04-07T08:58:25.104Z,98.21
2023-04-07T09:00:52.737Z,98.37
2023-04-07T09:03:20.560Z,98.64
2023-04-07T09:05:48.416Z,98.43
2023-04-07T09:08:15.878Z,98.12
2023-04-07T09:10:43.389Z,98.22
2023-04-07T09:13:10.886Z,98.27
2023-04-07T09:15:41.332Z,97.63
2023-04-07T09:18:08.808Z,97.14
2023-04-07T09:20:56.840Z,96.17
2023-04-07T09:23:31.905Z,97.20
2023-04-07T09:26:01.472Z,96.33
2023-04-07T09:28:42.868Z,95.75
2023-04-07T09:31:11.726Z,96.12
2023-04-07T09:33:39.298Z,96.58
2023-04-07T09:36:07.860Z,96.17
2023-04-07T09:38:36.583Z,95.80
2023-04-07T09:41:08.645Z,96.25
2023-04-07T09:43:37.938Z,96.40
2023-04-07T09:46:14.933Z,96.33
2023-04-07T09:48:43.669Z,96.54
2023-04-07T09:51:12.593Z,96.80
2023-04-07T09:53:48.760Z,96.43
2023-04-07T09:56:17.496Z,95.62
2023-04-07T09:58:47.078Z,94.54
2023-04-07T10:01:17.918Z,93.69
2023-04-07T10:03:46.628Z,94.54
2023-04-07T10:06:14.731Z,94.26
2023-04-07T10:08:43.669Z,93.59
2023-04-07T10:11:11.998Z,91.30
2023-04-07T10:13:42.939Z,91.15
2023-04-07T10:16:10.450Z,90.91
2023-04-07T10:18:40.368Z,91.00
2023-04-07T10:21:09.228Z,90.67
2023-04-07T10:23:44.921Z,90.68
2023-04-07T10:26:13.238Z,89.12
2023-04-07T10:28:42.542Z,89.79
2023-04-07T10:31:10.849Z,89.67
2023-04-07T10:33:47.920Z,89.21
2023-04-07T10:36:15.784Z,89.06
2023-04-07T10:38:43.486Z,88.38
2023-04-07T10:41:33.061Z,86.72
2023-04-07T10:44:00.524Z,85.95
2023-04-07T10:47:05.687Z,85.59
2023-04-07T10:49:35.003Z,86.88
2023-04-07T10:52:23.027Z,85.80
2023-04-07T10:55:37.483Z,87.69
2023-04-07T10:58:18.816Z,89.05
2023-04-07T11:01:20.569Z,89.47
2023-04-07T11:03:57.026Z,90.77
2023-04-07T11:06:27.141Z,92.12
2023-04-07T11:08:54.748Z,91.19
2023-04-07T11:11:38.271Z,86.94
2023-04-07T11:14:06.137Z,85.61
2023-04-07T11:16:38.454Z,84.26
2023-04-07T11:19:05.907Z,84.09
2023-04-07T11:21:34.995Z,83.80
2023-04-07T11:24:02.484Z,86.22
2023-04-07T11:26:30.980Z,86.61
2023-04-07T11:28:59.281Z,86.51
2023-04-07T11:31:27.794Z,86.06
2023-04-07T11:33:56.646Z,85.70
2023-04-07T11:36:32.246Z,86.86
2023-04-07T11:39:02.157Z,87.18
2023-04-07T11:41:32.613Z,87.25
2023-04-07T11:44:07.191Z,88.29
2023-04-07T11:46:35.138Z,88.14
2023-04-07T11:49:14.295Z,88.24
2023-04-07T11:51:46.067Z,89.26
2023-04-07T11:54:15.910Z,89.48
2023-04-07T11:56:45.577Z,89.39
2023-04-07T11:59:22.652Z,88.99
2023-04-07T12:01:50.861Z,89.93
2023-04-07T12:04:18.974Z,90.04
2023-04-07T12:06:48.168Z,89.63
2023-04-07T12:09:30.741Z,90.39
2023-04-07T12:11:58.723Z,90.67
2023-04-07T12:14:27.542Z,90.35
2023-04-07T12:16:56.645Z,89.73
2023-04-07T12:19:24.473Z,90.46
2023-04-07T12:21:52.140Z,90.31
2023-04-07T12:24:19.638Z,90.51
2023-04-07T12:26:49.115Z,90.24
2023-04-07T12:29:17.464Z,89.88
2023-04-07T12:31:45.547Z,90.94
2023-04-07T12:34:13.122Z,89.72
2023-04-07T12:36:40.595Z,90.23
2023-04-07T12:39:08.050Z,91.46
2023-04-07T12:41:36.006Z,91.01
2023-04-07T12:44:04.788Z,92.03
2023-04-07T12:46:32.390Z,91.77
2023-04-07T12:49:00.228Z,91.41
2023-04-07T12:51:28.376Z,91.12
2023-04-07T12:53:55.867Z,91.22
2023-04-07T12:56:24.095Z,91.20
2023-04-07T12:58:51.551Z,91.68
2023-04-07T13:01:20.372Z,91.71
2023-04-07T13:03:48.269Z,92.83
2023-04-07T13:06:16.006Z,92.38
2023-04-07T13:08:43.465Z,91.38
2023-04-07T13:11:10.962Z,90.02
2023-04-07T13:13:38.410Z,90.87
2023-04-07T13:16:06.305Z,91.02
2023-04-07T13:18:35.292Z,89.65
2023-04-07T13:21:22.149Z,89.62
2023-04-07T13:23:51.532Z,87.71
2023-04-07T13:26:19.056Z,87.37
2023-04-07T13:28:47.869Z,86.23
2023-04-07T13:31:16.151Z,86.22
2023-04-07T13:33:45.300Z,85.42
2023-04-07T13:36:12.852Z,84.54
2023-04-07T13:38:42.268Z,84.28
2023-04-07T13:41:09.837Z,84.23
2023-04-07T13:43:37.289Z,83.65
2023-04-07T13:46:07.816Z,83.67
2023-04-07T13:48:39.530Z,83.19
2023-04-07T13:51:08.336Z,83.09
2023-04-07T13:53:35.835Z,80.98
2023-04-07T13:56:03.508Z,80.30
2023-04-07T13:58:32.009Z,80.80
2023-04-07T14:00:59.661Z,79.20
2023-04-07T14:03:27.791Z,79.90
2023-04-07T14:05:55.305Z,81.45
2023-04-07T14:08:24.408Z,81.10
2023-04-07T14:10:52.228Z,81.39
2023-04-07T14:13:19.679Z,79.86
2023-04-07T14:15:47.355Z,78.11
2023-04-07T14:18:14.909Z,78.34
2023-04-07T14:20:42.360Z,80.15
2023-04-07T14:23:09.781Z,81.89
2023-04-07T14:25:38.584Z,78.84
2023-04-07T14:28:06.326Z,77.99
2023-04-07T14:30:38.118Z,78.03
2023-04-07T14:33:06.302Z,77.88
2023-04-07T14:35:33.841Z,79.25
2023-04-07T14:38:01.366Z,79.16
2023-04-07T14:40:28.945Z,79.34
2023-04-07T14:45:29.328Z,79.31
2023-04-07T14:47:56.967Z,79.96
2023-04-07T14:50:24.699Z,79.67
2023-04-07T14:52:53.344Z,80.52
2023-04-07T14:55:20.965Z,79.76
2023-04-07T14:57:48.440Z,79.29
2023-04-07T15:00:17.819Z,79.75
2023-04-07T15:02:45.561Z,80.06
2023-04-07T15:05:13.560Z,80.29
2023-04-07T15:07:41.104Z,79.78
2023-04-07T15:10:09.259Z,79.52
2023-04-07T15:12:36.740Z,79.37
2023-04-07T15:15:04.589Z,79.17
2023-04-07T15:17:42.842Z,79.32
2023-04-07T15:20:12.804Z,79.45
2023-04-07T15:22:40.468Z,78.33
2023-04-07T15:25:08.848Z,79.73
2023-04-07T15:27:36.410Z,80.01
2023-04-07T15:30:04.180Z,79.70
2023-04-07T15:32:33.015Z,78.99
2023-04-07T15:35:00.774Z,78.95
2023-04-07T15:37:28.269Z,78.96
2023-04-07T15:39:55.936Z,79.62
2023-04-07T15:42:23.420Z,79.85
2023-04-07T15:44:51.152Z,79.42
2023-04-07T15:47:18.596Z,79.47
2023-04-07T15:49:47.387Z,78.20
2023-04-07T15:52:14.962Z,78.35
2023-04-07T15:54:42.446Z,77.74
2023-04-07T15:57:09.970Z,78.32
2023-04-07T15:59:37.530Z,77.60
2023-04-07T16:02:05.178Z,77.30
2023-04-07T16:04:32.683Z,78.56
2023-04-07T16:07:01.881Z,78.02
2023-04-07T16:09:29.703Z,78.75
2023-04-07T16:11:57.417Z,78.55
2023-04-07T16:14:28.780Z,79.25
2023-04-07T16:16:58.671Z,77.60
2023-04-07T16:19:26.622Z,78.62
2023-04-07T16:21:54.669Z,78.46
2023-04-07T16:24:23.551Z,77.10
2023-04-07T16:26:52.304Z,76.85
2023-04-07T16:29:20.394Z,75.45
2023-04-07T16:31:47.902Z,75.17
2023-04-07T16:34:15.645Z,75.38
2023-04-07T16:36:43.104Z,75.32
2023-04-07T16:39:10.651Z,75.82
2023-04-07T16:41:39.460Z,76.74
2023-04-07T16:44:07.130Z,76.63
2023-04-07T16:46:34.609Z,76.55
2023-04-07T16:49:03.204Z,77.24
2023-04-07T16:51:31.740Z,77.37
2023-04-07T16:53:59.194Z,77.64
2023-04-07T16:56:26.813Z,77.51
2023-04-07T16:58:56.250Z,77.31
2023-04-07T17:01:23.796Z,78.03
2023-04-07T17:03:52.544Z,77.47
2023-04-07T17:06:20.301Z,77.49
2023-04-07T17:08:48.741Z,78.23
2023-04-07T17:11:16.258Z,78.10
2023-04-07T17:13:43.736Z,78.41
2023-04-07T17:16:14.594Z,77.97
2023-04-07T17:18:42.129Z,77.92
2023-04-07T17:21:09.833Z,77.83
2023-04-07T17:23:37.353Z,78.03
2023-04-07T17:26:04.947Z,77.47
2023-04-07T17:28:32.496Z,77.29
2023-04-07T17:31:00.081Z,77.73
2023-04-07T17:33:30.682Z,77.19
2023-04-07T17:35:58.294Z,77.44
2023-04-07T17:38:25.942Z,78.56
2023-04-07T17:40:58.224Z,78.26
2023-04-07T17:43:26.037Z,77.75
2023-04-07T17:45:53.582Z,77.57
2023-04-07T17:48:21.433Z,77.24
2023-04-07T17:50:50.548Z,78.29
2023-04-07T17:53:18.099Z,78.37
2023-04-07T17:55:45.700Z,78.78
2023-04-07T17:58:13.266Z,78.64
2023-04-07T18:00:41.296Z,79.18
2023-04-07T18:03:09.060Z,79.29
2023-04-07T18:05:37.147Z,79.62
2023-04-07T18:08:06.346Z,79.82
2023-04-07T18:10:33.886Z,79.95
2023-04-07T18:13:02.991Z,79.77
2023-04-07T18:15:30.539Z,80.68
2023-04-07T18:17:58.350Z,80.39
2023-04-07T18:20:25.831Z,81.48
2023-04-07T18:22:53.458Z,81.28
2023-04-07T18:25:23.130Z,81.52
2023-04-07T18:27:50.808Z,82.05
2023-04-07T18:30:18.329Z,82.19
2023-04-07T18:32:46.211Z,82.66
2023-04-07T18:35:13.798Z,82.35
2023-04-07T18:37:44.003Z,82.61
2023-04-07T18:40:12.554Z,82.18
2023-04-07T18:42:41.409Z,83.05
2023-04-07T18:45:09.581Z,83.08
2023-04-07T18:47:37.104Z,81.96
2023-04-07T18:50:05.357Z,83.08
2023-04-07T18:52:32.865Z,82.23
2023-04-07T18:55:00.343Z,81.76
2023-04-07T18:57:28.101Z,81.79
2023-04-07T18:59:56.946Z,81.23
2023-04-07T19:02:24.558Z,80.35
2023-04-07T19:04:52.126Z,80.84
2023-04-07T19:07:19.615Z,80.15
2023-04-07T19:09:51.084Z,80.37
2023-04-07T19:12:18.536Z,81.06
2023-04-07T19:14:45.998Z,80.97
2023-04-07T19:17:14.800Z,81.10
2023-04-07T19:19:42.349Z,80.88
2023-04-07T19:22:09.833Z,81.35
2023-04-07T19:24:37.436Z,81.72
2023-04-07T19:27:05.102Z,80.93
2023-04-07T19:29:32.981Z,81.31
2023-04-07T19:32:00.583Z,81.38
2023-04-07T19:34:29.527Z,81.70
2023-04-07T19:36:57.185Z,81.85
2023-04-07T19:39:25.107Z,81.00
2023-04-07T19:41:52.636Z,81.75
2023-04-07T19:44:20.116Z,82.47
2023-04-07T19:46:48.623Z,81.91
2023-04-07T19:49:16.110Z,81.82
2023-04-07T19:51:44.949Z,82.40
2023-04-07T19:54:12.446Z,82.37
2023-04-07T19:56:39.992Z,82.45
2023-04-07T19:59:08.175Z,82.80
2023-04-07T20:01:35.732Z,83.19
2023-04-07T20:04:03.578Z,83.79
2023-04-07T20:06:32.961Z,83.96
2023-04-07T20:09:02.682Z,84.51
2023-04-07T20:11:30.175Z,84.66
2023-04-07T20:13:57.682Z,84.93
2023-04-07T20:16:25.558Z,85.47
2023-04-07T20:18:53.041Z,85.71
2023-04-07T20:21:20.516Z,85.64
2023-04-07T20:23:51.383Z,86.08
2023-04-07T20:26:21.939Z,86.31
2023-04-07T20:28:49.583Z,86.03
2023-04-07T20:31:18.295Z,86.35
2023-04-07T20:33:45.926Z,86.80
2023-04-07T20:36:13.508Z,87.86
2023-04-07T20:38:43.559Z,89.03
2023-04-07T20:41:12.196Z,89.84
2023-04-07T20:43:41.058Z,90.42
2023-04-07T20:46:08.598Z,90.99
2023-04-07T20:48:36.323Z,91.17
2023-04-07T20:51:03.861Z,91.35
2023-04-07T20:53:31.337Z,91.00
2023-04-07T20:55:59.028Z,90.82
2023-04-07T20:58:26.618Z,90.65
2023-04-07T21:00:57.956Z,90.39
2023-04-07T21:03:26.668Z,90.34
2023-04-07T21:05:54.707Z,90.24
2023-04-07T21:08:23.316Z,90.94
2023-04-07T21:10:52.288Z,90.83
2023-04-07T21:13:21.025Z,90.59
2023-04-07T21:15:48.514Z,90.97
2023-04-07T21:18:18.838Z,91.00
2023-04-07T21:20:47.218Z,91.23
2023-04-07T21:23:14.698Z,91.70
2023-04-07T21:25:42.173Z,91.42
2023-04-07T21:28:09.705Z,91.13
2023-04-07T21:30:41.292Z,90.83
2023-04-07T21:33:08.937Z,90.56
2023-04-07T21:35:38.141Z,90.24
2023-04-07T21:38:05.837Z,90.57
2023-04-07T21:40:33.306Z,90.43
2023-04-07T21:43:00.781Z,90.52
2023-04-07T21:45:29.526Z,90.15
2023-04-07T21:47:57.215Z,90.24
2023-04-07T21:50:25.375Z,90.50
2023-04-07T21:52:54.256Z,91.26
2023-04-07T21:55:21.792Z,91.29
2023-04-07T21:57:50.055Z,92.24
2023-04-07T22:00:17.763Z,92.26
2023-04-07T22:02:45.659Z,92.57
2023-04-07T22:05:13.560Z,92.64
2023-04-07T22:07:41.082Z,93.30
2023-04-07T22:10:11.526Z,94.33
2023-04-07T22:12:39.093Z,94.60
2023-04-07T22:15:07.498Z,93.15
2023-04-07T22:17:35.443Z,93.81
2023-04-07T22:20:03.217Z,94.11
2023-04-07T22:22:30.919Z,94.10
2023-04-07T22:24:58.419Z,94.04
2023-04-07T22:27:27.726Z,94.47
2023-04-07T22:29:55.573Z,94.66
2023-04-07T22:32:23.105Z,95.00
2023-04-07T22:34:50.828Z,94.96
2023-04-07T22:37:19.227Z,94.51
2023-04-07T22:39:46.901Z,94.32
2023-04-07T22:42:14.502Z,94.75
2023-04-07T22:44:43.346Z,95.00
2023-04-07T22:47:10.911Z,95.06
2023-04-07T22:49:38.384Z,94.71
2023-04-07T22:52:06.244Z,93.62
2023-04-07T22:54:33.762Z,94.42
2023-04-07T22:57:01.710Z,93.95
2023-04-07T22:59:29.291Z,94.42
2023-04-07T23:01:58.433Z,94.48
2023-04-07T23:04:26.104Z,94.76
2023-04-07T23:06:53.803Z,94.46
2023-04-07T23:09:21.277Z,95.09
2023-04-07T23:11:48.815Z,94.96
2023-04-07T23:14:16.368Z,94.08
2023-04-07T23:16:43.897Z,94.87
2023-04-07T23:19:15.675Z,95.01
2023-04-07T23:21:43.411Z,94.65
2023-04-07T23:24:11.047Z,94.79
2023-04-07T23:26:38.794Z,95.18
2023-04-07T23:29:06.530Z,94.59
2023-04-07T23:31:34.034Z,95.09
2023-04-07T23:34:02.315Z,94.68
2023-04-07T23:36:31.456Z,95.13
2023-04-07T23:39:00.651Z,95.18
2023-04-07T23:41:28.108Z,95.20
2023-04-07T23:43:55.813Z,95.19
2023-04-07T23:46:24.407Z,96.13
2023-04-07T23:48:52.133Z,95.80
2023-04-07T23:51:20.371Z,96.25
2023-04-07T23:53:52.166Z,96.25
2023-04-07T23:56:19.633Z,96.31
2023-04-07T23:58:47.103Z,95.80
